createdAt,value
2022-10-28T00:01:24.998Z,74.33
2022-10-28T00:03:54.997Z,74.42
2022-10-28T00:06:30.830Z,74.68
2022-10-28T00:08:58.818Z,75.20
2022-10-28T00:11:28.863Z,74.88
2022-10-28T00:13:57.731Z,76.67
2022-10-28T00:16:27.774Z,76.30
2022-10-28T00:18:55.760Z,74.48
2022-10-28T00:21:25.505Z,75.12
2022-10-28T00:23:53.732Z,76.78
2022-10-28T00:26:25.859Z,78.52
2022-10-28T00:28:59.055Z,79.21
2022-10-28T00:31:28.310Z,79.07
2022-10-28T00:33:56.681Z,78.42
2022-10-28T00:36:26.620Z,79.42
2022-10-28T00:38:55.294Z,77.87
2022-10-28T00:41:24.532Z,76.88
2022-10-28T00:43:54.333Z,76.40
2022-10-28T00:46:35.657Z,77.28
2022-10-28T00:49:06.969Z,78.82
2022-10-28T00:51:35.092Z,78.19
2022-10-28T00:54:04.309Z,76.95
2022-10-28T00:56:40.758Z,77.72
2022-10-28T00:59:13.437Z,77.92
2022-10-28T01:01:40.825Z,77.34
2022-10-28T01:04:08.534Z,78.15
2022-10-28T01:06:35.978Z,77.37
2022-10-28T01:09:03.426Z,77.92
2022-10-28T01:11:46.136Z,81.38
2022-10-28T01:14:21.980Z,84.46
2022-10-28T01:16:55.741Z,80.36
2022-10-28T01:19:42.892Z,82.74
2022-10-28T01:22:19.576Z,82.77
2022-10-28T01:24:49.798Z,85.07
2022-10-28T01:27:45.340Z,82.44
2022-10-28T01:30:25.686Z,81.68
2022-10-28T01:32:56.433Z,81.45
2022-10-28T01:35:42.091Z,81.53
2022-10-28T01:38:26.580Z,81.66
2022-10-28T01:40:53.780Z,82.05
2022-10-28T01:43:30.326Z,81.06
2022-10-28T01:46:05.770Z,81.58
2022-10-28T01:48:39.459Z,80.58
2022-10-28T01:51:30.828Z,78.11
2022-10-28T01:54:00.175Z,79.65
2022-10-28T01:56:31.354Z,80.78
2022-10-28T01:59:00.970Z,79.10
2022-10-28T02:01:30.144Z,79.00
2022-10-28T02:03:57.886Z,81.06
2022-10-28T02:06:27.760Z,82.85
2022-10-28T02:09:01.122Z,83.23
2022-10-28T02:11:38.040Z,83.56
2022-10-28T02:14:05.227Z,85.70
2022-10-28T02:16:47.988Z,88.13
2022-10-28T02:19:26.192Z,89.35
2022-10-28T02:22:19.569Z,88.39
2022-10-28T02:25:24.370Z,86.62
2022-10-28T02:28:08.072Z,83.60
2022-10-28T02:30:44.260Z,81.80
2022-10-28T02:33:16.803Z,82.92
2022-10-28T02:35:57.743Z,83.67
2022-10-28T02:38:28.690Z,82.56
2022-10-28T02:40:59.977Z,81.65
2022-10-28T02:43:30.404Z,82.03
2022-10-28T02:45:59.826Z,81.57
2022-10-28T02:48:49.069Z,81.29
2022-10-28T02:51:36.054Z,80.41
2022-10-28T02:54:13.259Z,80.22
2022-10-28T02:56:46.793Z,79.99
2022-10-28T02:59:14.192Z,78.90
2022-10-28T03:01:41.881Z,77.99
2022-10-28T03:04:09.380Z,77.50
2022-10-28T03:06:36.760Z,78.36
2022-10-28T03:09:04.444Z,78.39
2022-10-28T03:11:31.785Z,77.13
2022-10-28T03:13:59.122Z,77.45
2022-10-28T03:16:26.842Z,77.17
2022-10-28T03:18:54.231Z,78.14
2022-10-28T03:21:21.580Z,77.23
2022-10-28T03:23:49.211Z,78.55
2022-10-28T03:26:16.548Z,79.33
2022-10-28T03:28:43.877Z,78.70
2022-10-28T03:31:11.480Z,78.02
2022-10-28T03:33:38.983Z,78.14
2022-10-28T03:36:06.706Z,78.93
2022-10-28T03:38:34.308Z,78.68
2022-10-28T03:41:01.649Z,78.57
2022-10-28T03:43:28.989Z,78.72
2022-10-28T03:45:56.568Z,79.01
2022-10-28T03:48:23.948Z,78.86
2022-10-28T03:50:54.821Z,78.79
2022-10-28T03:53:26.278Z,79.37
2022-10-28T03:55:56.191Z,78.33
2022-10-28T03:58:24.067Z,78.02
2022-10-28T04:00:52.591Z,79.87
2022-10-28T04:03:21.594Z,79.30
2022-10-28T04:05:49.004Z,79.26
2022-10-28T04:08:17.078Z,78.99
2022-10-28T04:10:47.499Z,79.08
2022-10-28T04:13:15.618Z,78.38
2022-10-28T04:15:42.980Z,77.44
2022-10-28T04:18:10.718Z,78.96
2022-10-28T04:20:38.210Z,79.02
2022-10-28T04:23:05.857Z,79.00
2022-10-28T04:25:33.496Z,78.63
2022-10-28T04:28:00.843Z,79.48
2022-10-28T04:30:28.191Z,81.24
2022-10-28T04:32:55.823Z,80.42
2022-10-28T04:35:23.655Z,78.72
2022-10-28T04:37:51.198Z,79.16
2022-10-28T04:40:19.207Z,79.54
2022-10-28T04:42:46.556Z,79.42
2022-10-28T04:45:15.701Z,79.13
2022-10-28T04:47:43.303Z,79.41
2022-10-28T04:50:10.651Z,79.23
2022-10-28T04:52:37.981Z,78.76
2022-10-28T04:55:06.069Z,78.38
2022-10-28T04:57:33.391Z,79.07
2022-10-28T05:00:00.717Z,78.34
2022-10-28T05:02:28.366Z,78.42
2022-10-28T05:05:00.247Z,78.29
2022-10-28T05:07:27.872Z,78.79
2022-10-28T05:09:55.328Z,78.11
2022-10-28T05:12:22.693Z,78.86
2022-10-28T05:14:53.048Z,79.45
2022-10-28T05:17:20.632Z,78.72
2022-10-28T05:19:48.031Z,78.75
2022-10-28T05:22:15.723Z,79.80
2022-10-28T05:24:43.139Z,80.28
2022-10-28T05:27:10.507Z,82.14
2022-10-28T05:29:38.196Z,81.82
2022-10-28T05:34:38.256Z,80.52
2022-10-28T05:37:05.590Z,81.61
2022-10-28T05:39:32.924Z,83.31
2022-10-28T05:42:00.574Z,85.85
2022-10-28T05:44:28.222Z,86.19
2022-10-28T05:46:56.552Z,87.18
2022-10-28T05:49:24.165Z,86.53
2022-10-28T05:51:51.516Z,86.49
2022-10-28T05:54:19.030Z,85.44
2022-10-28T05:56:46.674Z,85.67
2022-10-28T05:59:14.012Z,82.66
2022-10-28T06:01:41.491Z,83.51
2022-10-28T06:04:09.233Z,82.84
2022-10-28T06:06:36.607Z,84.13
2022-10-28T06:09:04.146Z,84.77
2022-10-28T06:11:30.264Z,83.69
2022-10-28T06:13:57.666Z,84.57
2022-10-28T06:16:25.010Z,85.88
2022-10-28T06:18:52.652Z,88.35
2022-10-28T06:21:20.024Z,85.80
2022-10-28T06:23:47.527Z,85.07
2022-10-28T06:26:15.205Z,84.87
2022-10-28T06:28:45.764Z,86.30
2022-10-28T06:31:13.454Z,84.60
2022-10-28T06:33:41.139Z,83.42
2022-10-28T06:36:08.673Z,81.78
2022-10-28T06:38:36.014Z,82.82
2022-10-28T06:41:03.825Z,82.31
2022-10-28T06:43:31.318Z,80.61
2022-10-28T06:46:03.719Z,82.94
2022-10-28T06:48:33.267Z,81.60
2022-10-28T06:51:00.656Z,81.81
2022-10-28T06:53:27.993Z,81.96
2022-10-28T06:55:57.049Z,82.67
2022-10-28T06:58:25.220Z,80.93
2022-10-28T07:00:53.268Z,81.27
2022-10-28T07:03:22.404Z,81.43
2022-10-28T07:05:51.553Z,80.49
2022-10-28T07:08:18.947Z,80.97
2022-10-28T07:10:57.086Z,80.43
2022-10-28T07:13:24.981Z,80.65
2022-10-28T07:15:57.319Z,81.39
2022-10-28T07:18:26.226Z,80.79
2022-10-28T07:20:54.261Z,80.27
2022-10-28T07:23:21.634Z,80.12
2022-10-28T07:25:56.085Z,79.24
2022-10-28T07:28:24.935Z,80.90
2022-10-28T07:30:52.672Z,80.83
2022-10-28T07:33:20.144Z,80.97
2022-10-28T07:35:48.106Z,81.96
2022-10-28T07:38:15.509Z,80.58
2022-10-28T07:40:42.942Z,82.01
2022-10-28T07:43:10.558Z,85.49
2022-10-28T07:45:38.064Z,83.57
2022-10-28T07:48:05.736Z,84.31
2022-10-28T07:50:33.679Z,83.25
2022-10-28T07:53:01.296Z,81.10
2022-10-28T07:55:28.952Z,81.22
2022-10-28T07:57:56.771Z,81.48
2022-10-28T08:00:24.414Z,82.13
2022-10-28T08:02:52.025Z,83.24
2022-10-28T08:05:19.432Z,82.87
2022-10-28T08:07:47.930Z,81.71
2022-10-28T08:10:15.614Z,82.57
2022-10-28T08:12:43.051Z,82.68
2022-10-28T08:15:10.726Z,84.48
2022-10-28T08:17:38.419Z,85.52
2022-10-28T08:20:06.222Z,85.12
2022-10-28T08:22:33.592Z,82.76
2022-10-28T08:25:01.223Z,85.65
2022-10-28T08:27:28.590Z,82.36
2022-10-28T08:29:55.979Z,82.46
2022-10-28T08:32:23.636Z,81.05
2022-10-28T08:34:50.988Z,79.60
2022-10-28T08:37:18.583Z,80.25
2022-10-28T08:39:46.352Z,79.95
2022-10-28T08:42:38.148Z,80.33
2022-10-28T08:45:43.438Z,83.14
2022-10-28T08:48:13.697Z,85.27
2022-10-28T08:50:48.591Z,87.29
2022-10-28T08:53:35.561Z,88.10
2022-10-28T08:56:25.521Z,89.69
2022-10-28T08:58:54.818Z,88.65
2022-10-28T09:01:41.577Z,89.73
2022-10-28T09:04:36.299Z,88.35
2022-10-28T09:07:04.062Z,88.96
2022-10-28T09:09:31.929Z,90.18
2022-10-28T09:12:16.180Z,90.63
2022-10-28T09:15:28.397Z,85.81
2022-10-28T09:17:59.757Z,83.26
2022-10-28T09:20:52.171Z,83.62
2022-10-28T09:23:32.466Z,82.45
2022-10-28T09:26:17.840Z,81.93
2022-10-28T09:29:10.146Z,82.66
2022-10-28T09:32:05.331Z,80.28
2022-10-28T09:34:47.901Z,83.84
2022-10-28T09:37:29.566Z,81.73
2022-10-28T09:40:03.478Z,79.51
2022-10-28T09:42:34.880Z,86.80
2022-10-28T09:45:06.823Z,89.20
2022-10-28T09:47:42.298Z,85.49
2022-10-28T09:50:19.556Z,82.69
2022-10-28T09:53:17.978Z,81.58
2022-10-28T09:55:45.414Z,80.69
2022-10-28T09:58:13.882Z,79.85
2022-10-28T10:00:41.286Z,80.02
2022-10-28T10:03:08.910Z,78.85
2022-10-28T10:05:40.944Z,79.20
2022-10-28T10:08:14.512Z,82.83
2022-10-28T10:10:48.136Z,88.79
2022-10-28T10:13:17.920Z,89.00
2022-10-28T10:15:55.142Z,83.99
2022-10-28T10:18:26.152Z,82.77
2022-10-28T10:21:01.441Z,82.28
2022-10-28T10:23:37.059Z,81.21
2022-10-28T10:26:09.717Z,86.21
2022-10-28T10:28:49.662Z,88.54
2022-10-28T10:31:20.787Z,87.38
2022-10-28T10:33:53.632Z,86.55
2022-10-28T10:36:23.799Z,85.65
2022-10-28T10:38:56.623Z,88.71
2022-10-28T10:41:41.284Z,89.80
2022-10-28T10:44:20.863Z,86.27
2022-10-28T10:47:05.088Z,82.60
2022-10-28T10:49:35.312Z,80.36
2022-10-28T10:52:07.546Z,80.00
2022-10-28T10:54:36.460Z,80.18
2022-10-28T10:57:16.067Z,79.58
2022-10-28T10:59:48.445Z,77.34
2022-10-28T11:02:31.832Z,77.56
2022-10-28T11:05:04.642Z,77.67
2022-10-28T11:07:32.635Z,81.86
2022-10-28T11:10:00.629Z,82.32
2022-10-28T11:12:35.590Z,80.15
2022-10-28T11:15:21.346Z,80.56
2022-10-28T11:18:00.611Z,82.97
2022-10-28T11:20:34.729Z,82.76
2022-10-28T11:23:13.015Z,81.47
2022-10-28T11:25:43.652Z,81.36
2022-10-28T11:28:29.728Z,81.25
2022-10-28T11:34:05.446Z,79.34
2022-10-28T11:36:39.066Z,80.90
2022-10-28T11:39:34.006Z,82.30
2022-10-28T11:42:07.075Z,80.75
2022-10-28T11:47:37.796Z,87.54
2022-10-28T11:50:24.628Z,84.61
2022-10-28T11:53:16.917Z,85.45
2022-10-28T11:56:04.052Z,85.63
2022-10-28T11:58:55.992Z,86.77
2022-10-28T12:01:49.310Z,83.09
2022-10-28T12:04:38.915Z,81.67
2022-10-28T12:07:28.604Z,89.00
2022-10-28T12:10:12.460Z,90.31
2022-10-28T12:12:59.907Z,86.90
2022-10-28T12:15:43.966Z,84.45
2022-10-28T12:18:14.180Z,84.37
2022-10-28T12:21:00.862Z,82.75
2022-10-28T12:23:29.663Z,80.63
2022-10-28T12:25:58.958Z,81.18
2022-10-28T12:28:30.620Z,77.85
2022-10-28T12:30:58.583Z,77.61
2022-10-28T12:33:33.341Z,78.69
2022-10-28T12:36:19.258Z,82.22
2022-10-28T12:39:01.256Z,78.23
2022-10-28T12:42:03.280Z,78.50
2022-10-28T12:44:32.745Z,77.08
2022-10-28T12:47:20.071Z,77.24
2022-10-28T12:50:07.859Z,81.23
2022-10-28T12:52:49.689Z,79.55
2022-10-28T12:55:32.106Z,78.39
2022-10-28T12:58:04.994Z,78.15
2022-10-28T13:00:37.402Z,77.50
2022-10-28T13:03:09.980Z,77.26
2022-10-28T13:05:42.003Z,77.24
2022-10-28T13:08:43.551Z,81.48
2022-10-28T13:11:29.253Z,84.99
2022-10-28T13:13:56.847Z,85.42
2022-10-28T13:16:44.261Z,84.45
2022-10-28T13:19:46.411Z,84.33
2022-10-28T13:22:28.490Z,81.95
2022-10-28T13:25:17.594Z,82.01
2022-10-28T13:27:45.424Z,80.14
2022-10-28T13:30:20.063Z,79.10
2022-10-28T13:33:04.486Z,79.73
2022-10-28T13:35:32.307Z,80.20
2022-10-28T13:38:00.420Z,80.54
2022-10-28T13:40:30.394Z,78.63
2022-10-28T13:42:59.044Z,77.77
2022-10-28T13:45:48.279Z,77.98
2022-10-28T13:48:43.433Z,77.77
2022-10-28T13:51:10.736Z,79.29
2022-10-28T13:53:47.273Z,78.51
2022-10-28T13:56:22.864Z,79.80
2022-10-28T13:58:56.005Z,78.93
2022-10-28T14:01:42.067Z,78.70
2022-10-28T14:04:22.404Z,80.58
2022-10-28T14:06:50.389Z,83.18
2022-10-28T14:09:30.025Z,80.87
2022-10-28T14:12:17.630Z,83.52
2022-10-28T14:14:59.059Z,80.52
2022-10-28T14:17:38.363Z,80.71
2022-10-28T14:20:20.912Z,80.49
2022-10-28T14:22:48.410Z,79.69
2022-10-28T14:25:51.659Z,80.21
2022-10-28T14:28:27.498Z,83.33
2022-10-28T14:31:11.414Z,87.93
2022-10-28T14:33:50.755Z,90.79
2022-10-28T14:36:18.462Z,85.40
2022-10-28T14:38:51.546Z,83.86
2022-10-28T14:41:34.468Z,82.54
2022-10-28T14:44:21.885Z,81.34
2022-10-28T14:46:52.150Z,79.98
2022-10-28T14:49:30.659Z,81.55
2022-10-28T14:52:08.788Z,83.32
2022-10-28T14:54:40.887Z,81.30
2022-10-28T14:57:08.997Z,80.12
2022-10-28T14:59:38.341Z,79.79
2022-10-28T15:02:17.439Z,80.54
2022-10-28T15:04:47.095Z,81.21
2022-10-28T15:07:16.689Z,80.33
2022-10-28T15:09:45.319Z,81.08
2022-10-28T15:12:17.741Z,80.43
2022-10-28T15:14:53.087Z,79.96
2022-10-28T15:17:23.545Z,79.56
2022-10-28T15:19:58.954Z,79.22
2022-10-28T15:22:31.296Z,79.59
2022-10-28T15:25:08.185Z,80.37
2022-10-28T15:27:37.468Z,79.64
2022-10-28T15:30:19.045Z,80.47
2022-10-28T15:32:46.712Z,84.44
2022-10-28T15:35:38.476Z,82.33
2022-10-28T15:38:25.711Z,87.25
2022-10-28T15:40:53.135Z,88.03
2022-10-28T15:43:28.473Z,85.82
2022-10-28T15:46:09.862Z,84.23
2022-10-28T15:48:37.840Z,87.38
2022-10-28T15:51:18.086Z,88.74
2022-10-28T15:53:53.845Z,84.68
2022-10-28T15:56:25.717Z,83.62
2022-10-28T15:58:59.526Z,84.56
2022-10-28T16:01:38.195Z,84.35
2022-10-28T16:04:27.637Z,85.47
2022-10-28T16:06:57.544Z,84.51
2022-10-28T16:09:28.190Z,92.50
2022-10-28T16:11:57.614Z,95.10
2022-10-28T16:15:00.754Z,92.05
2022-10-28T16:17:33.784Z,93.86
2022-10-28T16:20:05.104Z,95.36
2022-10-28T16:22:35.166Z,91.78
2022-10-28T16:25:08.858Z,87.53
2022-10-28T16:27:36.218Z,86.50
2022-10-28T16:30:04.944Z,85.34
2022-10-28T16:32:40.143Z,83.36
2022-10-28T16:35:15.286Z,83.71
2022-10-28T16:37:44.777Z,84.09
2022-10-28T16:40:37.663Z,84.48
2022-10-28T16:43:01.561Z,90.03
2022-10-28T16:45:29.222Z,95.39
2022-10-28T16:47:56.745Z,92.21
2022-10-28T16:50:24.347Z,90.18
2022-10-28T16:52:54.456Z,92.33
2022-10-28T16:55:21.905Z,95.14
2022-10-28T16:57:49.263Z,94.52
2022-10-28T17:00:17.437Z,94.15
2022-10-28T17:02:45.301Z,95.77
2022-10-28T17:05:19.774Z,95.98
2022-10-28T17:07:47.384Z,95.99
2022-10-28T17:10:15.432Z,94.27
2022-10-28T17:12:42.966Z,92.42
2022-10-28T17:15:11.214Z,92.91
2022-10-28T17:17:58.314Z,94.46
2022-10-28T17:20:26.115Z,96.48
2022-10-28T17:22:53.783Z,95.04
2022-10-28T17:25:21.695Z,92.52
2022-10-28T17:27:49.394Z,90.89
2022-10-28T17:30:17.924Z,90.76
2022-10-28T17:32:49.347Z,91.76
2022-10-28T17:35:18.485Z,93.85
2022-10-28T17:37:45.980Z,92.07
2022-10-28T17:40:13.386Z,91.05
2022-10-28T17:42:41.067Z,90.61
2022-10-28T17:45:09.973Z,91.13
2022-10-28T17:47:37.403Z,90.87
2022-10-28T17:50:05.707Z,90.65
2022-10-28T17:52:37.290Z,89.42
2022-10-28T17:55:07.148Z,89.14
2022-10-28T17:57:34.703Z,88.37
2022-10-28T18:00:02.248Z,89.99
2022-10-28T18:02:40.617Z,92.08
2022-10-28T18:05:08.964Z,90.77
2022-10-28T18:07:36.832Z,92.89
2022-10-28T18:10:04.860Z,95.22
2022-10-28T18:12:33.080Z,96.92
2022-10-28T18:15:01.067Z,98.12
2022-10-28T18:17:28.786Z,97.58
2022-10-28T18:19:58.647Z,98.40
2022-10-28T18:24:59.420Z,94.58
2022-10-28T18:27:29.427Z,94.20
2022-10-28T18:29:57.276Z,90.04
2022-10-28T18:32:25.154Z,91.01
2022-10-28T18:34:52.930Z,90.76
2022-10-28T18:37:21.419Z,89.28
2022-10-28T18:39:49.840Z,88.17
2022-10-28T18:42:21.936Z,88.61
2022-10-28T18:44:49.907Z,92.04
2022-10-28T18:47:17.839Z,90.00
2022-10-28T18:49:45.915Z,90.11
2022-10-28T18:52:13.967Z,93.08
2022-10-28T18:54:41.798Z,91.48
2022-10-28T18:57:09.720Z,90.91
2022-10-28T18:59:52.359Z,91.65
2022-10-28T19:02:25.382Z,88.05
2022-10-28T19:04:53.307Z,87.20
2022-10-28T19:07:20.834Z,89.73
2022-10-28T19:09:48.208Z,87.21
2022-10-28T19:12:16.571Z,87.98
2022-10-28T19:14:44.336Z,89.18
2022-10-28T19:17:12.869Z,89.86
2022-10-28T19:19:40.718Z,88.59
2022-10-28T19:22:13.408Z,87.36
2022-10-28T19:24:41.518Z,90.55
2022-10-28T19:27:09.291Z,93.09
2022-10-28T19:32:09.461Z,93.59
2022-10-28T19:34:37.254Z,96.66
2022-10-28T19:37:04.886Z,96.22
2022-10-28T19:39:32.668Z,96.91
2022-10-28T19:42:00.065Z,93.35
2022-10-28T19:44:27.800Z,92.68
2022-10-28T19:46:55.566Z,94.40
2022-10-28T19:49:27.802Z,96.31
2022-10-28T19:51:57.453Z,96.15
2022-10-28T19:54:24.817Z,97.43
2022-10-28T19:56:52.330Z,98.06
2022-10-28T19:59:21.146Z,95.99
2022-10-28T20:01:49.977Z,95.95
2022-10-28T20:04:18.010Z,94.47
2022-10-28T20:06:45.412Z,95.75
2022-10-28T20:09:13.208Z,96.81
2022-10-28T20:11:41.269Z,95.48
2022-10-28T20:14:12.101Z,93.78
2022-10-28T20:16:42.551Z,94.97
2022-10-28T20:19:11.050Z,94.27
2022-10-28T20:21:39.406Z,91.50
2022-10-28T20:24:07.349Z,91.82
2022-10-28T20:26:36.644Z,94.01
2022-10-28T20:29:07.065Z,92.89
2022-10-28T20:31:34.847Z,92.81
2022-10-28T20:34:06.032Z,91.10
2022-10-28T20:36:38.712Z,91.85
2022-10-28T20:39:17.339Z,91.94
2022-10-28T20:41:46.083Z,93.47
2022-10-28T20:44:13.818Z,96.96
2022-10-28T20:46:41.601Z,99.05
2022-10-28T20:49:09.907Z,100.00
2022-10-28T20:51:37.565Z,99.16
2022-10-28T20:54:05.281Z,96.73
2022-10-28T20:56:36.226Z,97.03
2022-10-28T20:59:04.292Z,97.59
2022-10-28T21:01:33.678Z,98.86
2022-10-28T21:04:04.357Z,97.90
2022-10-28T21:06:32.449Z,94.33
2022-10-28T21:08:59.795Z,96.25
2022-10-28T21:11:28.021Z,99.05
2022-10-28T21:13:58.118Z,97.18
2022-10-28T21:16:26.862Z,94.90
2022-10-28T21:18:54.686Z,93.50
2022-10-28T21:21:23.957Z,93.79
2022-10-28T21:23:51.310Z,91.94
2022-10-28T21:26:18.854Z,88.06
2022-10-28T21:28:53.234Z,97.11
2022-10-28T21:31:21.334Z,93.13
2022-10-28T21:36:19.645Z,96.83
2022-10-28T21:38:47.435Z,95.89
2022-10-28T21:41:19.777Z,93.31
2022-10-28T21:43:49.050Z,93.69
2022-10-28T21:46:17.704Z,93.36
2022-10-28T21:48:45.380Z,94.42
2022-10-28T21:51:15.132Z,95.17
2022-10-28T21:53:44.421Z,95.65
2022-10-28T21:56:17.437Z,93.62
2022-10-28T21:58:47.900Z,93.32
2022-10-28T22:01:20.266Z,92.89
2022-10-28T22:03:48.363Z,93.74
2022-10-28T22:06:15.722Z,97.03
2022-10-28T22:08:43.106Z,95.71
2022-10-28T22:11:19.332Z,96.36
2022-10-28T22:13:48.688Z,96.03
2022-10-28T22:16:17.785Z,93.87
2022-10-28T22:18:45.546Z,93.89
2022-10-28T22:21:15.588Z,95.03
2022-10-28T22:23:43.560Z,98.89
2022-10-28T22:26:13.632Z,95.93
2022-10-28T22:28:41.390Z,94.29
2022-10-28T22:31:11.322Z,93.70
2022-10-28T22:33:38.840Z,91.79
2022-10-28T22:36:08.481Z,93.08
2022-10-28T22:38:36.145Z,92.31
2022-10-28T22:41:07.564Z,92.04
2022-10-28T22:43:34.952Z,92.71
2022-10-28T22:46:03.400Z,95.19
2022-10-28T22:48:31.346Z,93.61
2022-10-28T22:50:59.067Z,95.53
2022-10-28T22:53:26.978Z,96.58
2022-10-28T22:55:54.922Z,100.00
2022-10-28T22:58:23.385Z,100.00
2022-10-28T23:00:51.124Z,100.00
2022-10-28T23:03:19.016Z,100.00
2022-10-28T23:05:46.352Z,100.00
2022-10-28T23:08:17.196Z,100.00
2022-10-28T23:10:44.565Z,100.00
2022-10-28T23:13:12.782Z,99.43
2022-10-28T23:15:40.435Z,96.66
2022-10-28T23:18:07.833Z,95.77
2022-10-28T23:20:36.378Z,96.42
2022-10-28T23:23:04.213Z,91.73
2022-10-28T23:25:31.570Z,91.47
2022-10-28T23:27:59.191Z,91.27
2022-10-28T23:30:26.915Z,91.47
2022-10-28T23:32:57.214Z,93.49
2022-10-28T23:35:25.153Z,93.27
2022-10-28T23:37:53.003Z,97.92
2022-10-28T23:40:20.616Z,100.00
2022-10-28T23:42:48.026Z,98.61
2022-10-28T23:45:15.732Z,99.68
2022-10-28T23:47:43.136Z,98.33
2022-10-28T23:50:11.074Z,95.96
2022-10-28T23:52:38.698Z,95.11
2022-10-28T23:55:06.388Z,94.86
2022-10-28T23:57:33.951Z,98.83
